sensor_id;sensor_type;location;lat;lon;timestamp;P1;durP1;ratioP1;P2;durP2;ratioP2
58950;SDS011;44730;53.158;6.398;2022-09-09T00:00:12;10.38;;;7.45;;
58950;SDS011;44730;53.158;6.398;2022-09-09T00:02:41;10.93;;;7.78;;
58950;SDS011;44730;53.158;6.398;2022-09-09T00:08:16;12.05;;;7.50;;
58950;SDS011;44730;53.158;6.398;2022-09-09T00:10:45;12.30;;;7.70;;
58950;SDS011;44730;53.158;6.398;2022-09-09T00:13:20;12.68;;;8.40;;
58950;SDS011;44730;53.158;6.398;2022-09-09T00:15:55;10.07;;;7.40;;
58950;SDS011;44730;53.158;6.398;2022-09-09T00:18:31;10.40;;;7.65;;
58950;SDS011;44730;53.158;6.398;2022-09-09T00:21:13;10.85;;;7.90;;
58950;SDS011;44730;53.158;6.398;2022-09-09T00:23:44;11.32;;;7.53;;
58950;SDS011;44730;53.158;6.398;2022-09-09T00:31:33;10.65;;;7.95;;
58950;SDS011;44730;53.158;6.398;2022-09-09T00:34:02;10.45;;;7.80;;
58950;SDS011;44730;53.158;6.398;2022-09-09T00:36:39;11.90;;;7.95;;
58950;SDS011;44730;53.158;6.398;2022-09-09T00:39:08;11.23;;;8.43;;
58950;SDS011;44730;53.158;6.398;2022-09-09T00:41:54;11.00;;;7.90;;
58950;SDS011;44730;53.158;6.398;2022-09-09T00:47:39;9.80;;;7.45;;
58950;SDS011;44730;53.158;6.398;2022-09-09T00:50:22;10.18;;;7.50;;
58950;SDS011;44730;53.158;6.398;2022-09-09T00:56:00;13.02;;;7.63;;
58950;SDS011;44730;53.158;6.398;2022-09-09T01:01:50;10.02;;;6.80;;
58950;SDS011;44730;53.158;6.398;2022-09-09T01:04:21;12.95;;;7.25;;
58950;SDS011;44730;53.158;6.398;2022-09-09T01:07:02;11.45;;;7.10;;
58950;SDS011;44730;53.158;6.398;2022-09-09T01:12:15;8.43;;;6.68;;
58950;SDS011;44730;53.158;6.398;2022-09-09T01:14:58;11.13;;;7.07;;
58950;SDS011;44730;53.158;6.398;2022-09-09T01:22:54;9.70;;;6.57;;
58950;SDS011;44730;53.158;6.398;2022-09-09T01:28:29;10.80;;;5.75;;
58950;SDS011;44730;53.158;6.398;2022-09-09T01:30:57;7.78;;;6.15;;
58950;SDS011;44730;53.158;6.398;2022-09-09T01:33:25;9.00;;;6.13;;
58950;SDS011;44730;53.158;6.398;2022-09-09T01:35:53;9.00;;;6.68;;
58950;SDS011;44730;53.158;6.398;2022-09-09T01:38:28;10.60;;;6.35;;
58950;SDS011;44730;53.158;6.398;2022-09-09T01:40:55;10.40;;;6.60;;
58950;SDS011;44730;53.158;6.398;2022-09-09T01:43:21;8.57;;;6.45;;
58950;SDS011;44730;53.158;6.398;2022-09-09T01:45:48;8.55;;;5.93;;
58950;SDS011;44730;53.158;6.398;2022-09-09T01:48:17;9.02;;;6.72;;
58950;SDS011;44730;53.158;6.398;2022-09-09T01:50:46;9.25;;;6.60;;
58950;SDS011;44730;53.158;6.398;2022-09-09T01:53:12;11.40;;;6.80;;
58950;SDS011;44730;53.158;6.398;2022-09-09T01:55:41;9.57;;;6.50;;
58950;SDS011;44730;53.158;6.398;2022-09-09T01:58:34;8.13;;;6.68;;
58950;SDS011;44730;53.158;6.398;2022-09-09T02:01:17;13.60;;;7.38;;
58950;SDS011;44730;53.158;6.398;2022-09-09T02:03:57;13.43;;;7.40;;
58950;SDS011;44730;53.158;6.398;2022-09-09T02:06:33;10.40;;;7.28;;
58950;SDS011;44730;53.158;6.398;2022-09-09T02:09:05;11.02;;;7.97;;
58950;SDS011;44730;53.158;6.398;2022-09-09T02:11:36;10.73;;;7.47;;
58950;SDS011;44730;53.158;6.398;2022-09-09T02:14:08;9.05;;;7.47;;
58950;SDS011;44730;53.158;6.398;2022-09-09T02:16:39;11.15;;;8.05;;
58950;SDS011;44730;53.158;6.398;2022-09-09T02:19:21;11.50;;;8.48;;
58950;SDS011;44730;53.158;6.398;2022-09-09T02:21:52;11.18;;;8.02;;
58950;SDS011;44730;53.158;6.398;2022-09-09T02:24:20;10.57;;;8.18;;
58950;SDS011;44730;53.158;6.398;2022-09-09T02:26:48;10.45;;;7.65;;
58950;SDS011;44730;53.158;6.398;2022-09-09T02:29:18;11.25;;;8.38;;
58950;SDS011;44730;53.158;6.398;2022-09-09T02:31:47;10.98;;;8.15;;
58950;SDS011;44730;53.158;6.398;2022-09-09T02:34:17;11.63;;;8.38;;
58950;SDS011;44730;53.158;6.398;2022-09-09T02:36:47;13.48;;;8.90;;
58950;SDS011;44730;53.158;6.398;2022-09-09T02:39:15;13.93;;;8.77;;
58950;SDS011;44730;53.158;6.398;2022-09-09T02:41:46;13.55;;;8.32;;
58950;SDS011;44730;53.158;6.398;2022-09-09T02:44:16;12.23;;;8.80;;
58950;SDS011;44730;53.158;6.398;2022-09-09T02:55:35;14.13;;;9.05;;
58950;SDS011;44730;53.158;6.398;2022-09-09T02:58:14;16.08;;;9.13;;
58950;SDS011;44730;53.158;6.398;2022-09-09T03:00:43;13.57;;;8.95;;
58950;SDS011;44730;53.158;6.398;2022-09-09T03:03:11;13.38;;;9.27;;
58950;SDS011;44730;53.158;6.398;2022-09-09T03:05:37;13.73;;;8.80;;
58950;SDS011;44730;53.158;6.398;2022-09-09T03:08:04;14.90;;;9.25;;
58950;SDS011;44730;53.158;6.398;2022-09-09T03:10:31;13.25;;;8.68;;
58950;SDS011;44730;53.158;6.398;2022-09-09T03:12:57;14.85;;;8.88;;
58950;SDS011;44730;53.158;6.398;2022-09-09T03:15:23;12.57;;;8.50;;
58950;SDS011;44730;53.158;6.398;2022-09-09T03:17:50;12.82;;;8.57;;
58950;SDS011;44730;53.158;6.398;2022-09-09T03:20:16;13.57;;;8.85;;
58950;SDS011;44730;53.158;6.398;2022-09-09T03:22:41;11.82;;;8.35;;
58950;SDS011;44730;53.158;6.398;2022-09-09T03:25:08;13.77;;;8.23;;
58950;SDS011;44730;53.158;6.398;2022-09-09T03:27:36;10.98;;;7.68;;
58950;SDS011;44730;53.158;6.398;2022-09-09T03:30:02;10.20;;;7.30;;
58950;SDS011;44730;53.158;6.398;2022-09-09T03:32:28;12.73;;;7.82;;
58950;SDS011;44730;53.158;6.398;2022-09-09T03:34:54;10.75;;;7.65;;
58950;SDS011;44730;53.158;6.398;2022-09-09T03:37:20;10.13;;;7.45;;
58950;SDS011;44730;53.158;6.398;2022-09-09T03:39:45;9.77;;;6.72;;
58950;SDS011;44730;53.158;6.398;2022-09-09T03:42:15;9.68;;;6.53;;
58950;SDS011;44730;53.158;6.398;2022-09-09T03:44:44;9.07;;;6.50;;
58950;SDS011;44730;53.158;6.398;2022-09-09T03:47:15;10.90;;;7.00;;
58950;SDS011;44730;53.158;6.398;2022-09-09T03:49:42;8.88;;;6.50;;
58950;SDS011;44730;53.158;6.398;2022-09-09T03:52:08;9.38;;;6.72;;
58950;SDS011;44730;53.158;6.398;2022-09-09T03:54:34;9.07;;;6.70;;
58950;SDS011;44730;53.158;6.398;2022-09-09T03:57:01;11.57;;;6.18;;
58950;SDS011;44730;53.158;6.398;2022-09-09T03:59:27;8.75;;;6.38;;
58950;SDS011;44730;53.158;6.398;2022-09-09T04:01:53;12.85;;;6.75;;
58950;SDS011;44730;53.158;6.398;2022-09-09T04:04:19;8.35;;;5.75;;
58950;SDS011;44730;53.158;6.398;2022-09-09T04:06:46;7.05;;;5.47;;
58950;SDS011;44730;53.158;6.398;2022-09-09T04:09:13;9.73;;;5.20;;
58950;SDS011;44730;53.158;6.398;2022-09-09T04:11:39;10.88;;;6.80;;
58950;SDS011;44730;53.158;6.398;2022-09-09T04:14:05;8.98;;;5.45;;
58950;SDS011;44730;53.158;6.398;2022-09-09T04:16:32;10.02;;;5.90;;
58950;SDS011;44730;53.158;6.398;2022-09-09T04:18:59;9.00;;;5.63;;
58950;SDS011;44730;53.158;6.398;2022-09-09T04:21:25;8.07;;;5.35;;
58950;SDS011;44730;53.158;6.398;2022-09-09T04:23:51;9.55;;;5.22;;
58950;SDS011;44730;53.158;6.398;2022-09-09T04:26:17;8.70;;;5.63;;
58950;SDS011;44730;53.158;6.398;2022-09-09T04:28:43;8.30;;;5.25;;
58950;SDS011;44730;53.158;6.398;2022-09-09T04:31:42;8.90;;;5.45;;
58950;SDS011;44730;53.158;6.398;2022-09-09T04:34:07;8.23;;;5.75;;
58950;SDS011;44730;53.158;6.398;2022-09-09T04:36:34;8.40;;;4.97;;
58950;SDS011;44730;53.158;6.398;2022-09-09T04:39:00;8.52;;;5.85;;
58950;SDS011;44730;53.158;6.398;2022-09-09T04:41:26;8.68;;;5.85;;
58950;SDS011;44730;53.158;6.398;2022-09-09T04:43:53;8.50;;;5.65;;
58950;SDS011;44730;53.158;6.398;2022-09-09T04:46:19;7.32;;;4.95;;
58950;SDS011;44730;53.158;6.398;2022-09-09T04:48:47;7.43;;;5.93;;
58950;SDS011;44730;53.158;6.398;2022-09-09T04:51:14;8.93;;;5.68;;
58950;SDS011;44730;53.158;6.398;2022-09-09T04:53:41;7.28;;;5.45;;
58950;SDS011;44730;53.158;6.398;2022-09-09T04:56:11;7.93;;;5.55;;
58950;SDS011;44730;53.158;6.398;2022-09-09T04:58:39;12.40;;;6.28;;
58950;SDS011;44730;53.158;6.398;2022-09-09T05:01:08;6.60;;;5.05;;
58950;SDS011;44730;53.158;6.398;2022-09-09T05:03:38;11.85;;;6.15;;
58950;SDS011;44730;53.158;6.398;2022-09-09T05:06:09;9.40;;;5.80;;
58950;SDS011;44730;53.158;6.398;2022-09-09T05:08:42;10.23;;;5.95;;
58950;SDS011;44730;53.158;6.398;2022-09-09T05:11:18;9.18;;;6.05;;
58950;SDS011;44730;53.158;6.398;2022-09-09T05:13:49;10.00;;;6.13;;
58950;SDS011;44730;53.158;6.398;2022-09-09T05:16:15;8.60;;;5.97;;
58950;SDS011;44730;53.158;6.398;2022-09-09T05:18:42;9.82;;;6.97;;
58950;SDS011;44730;53.158;6.398;2022-09-09T05:21:08;8.80;;;6.20;;
58950;SDS011;44730;53.158;6.398;2022-09-09T05:23:35;8.85;;;6.47;;
58950;SDS011;44730;53.158;6.398;2022-09-09T05:26:02;10.15;;;6.43;;
58950;SDS011;44730;53.158;6.398;2022-09-09T05:28:28;10.25;;;6.40;;
58950;SDS011;44730;53.158;6.398;2022-09-09T05:30:58;9.48;;;6.15;;
58950;SDS011;44730;53.158;6.398;2022-09-09T05:33:26;10.98;;;6.82;;
58950;SDS011;44730;53.158;6.398;2022-09-09T05:35:59;9.75;;;7.00;;
58950;SDS011;44730;53.158;6.398;2022-09-09T05:38:28;10.13;;;6.95;;
58950;SDS011;44730;53.158;6.398;2022-09-09T05:40:54;11.05;;;6.63;;
58950;SDS011;44730;53.158;6.398;2022-09-09T05:43:22;9.43;;;7.00;;
58950;SDS011;44730;53.158;6.398;2022-09-09T05:45:57;10.23;;;7.35;;
58950;SDS011;44730;53.158;6.398;2022-09-09T05:48:27;8.70;;;6.50;;
58950;SDS011;44730;53.158;6.398;2022-09-09T05:50:54;10.15;;;6.85;;
58950;SDS011;44730;53.158;6.398;2022-09-09T05:53:20;11.25;;;7.07;;
58950;SDS011;44730;53.158;6.398;2022-09-09T05:55:46;11.15;;;7.57;;
58950;SDS011;44730;53.158;6.398;2022-09-09T05:58:12;10.38;;;7.00;;
58950;SDS011;44730;53.158;6.398;2022-09-09T06:00:39;10.50;;;7.07;;
58950;SDS011;44730;53.158;6.398;2022-09-09T06:03:05;11.70;;;7.22;;
58950;SDS011;44730;53.158;6.398;2022-09-09T06:05:31;11.73;;;7.13;;
58950;SDS011;44730;53.158;6.398;2022-09-09T06:07:56;10.35;;;7.00;;
58950;SDS011;44730;53.158;6.398;2022-09-09T06:10:23;9.05;;;6.50;;
58950;SDS011;44730;53.158;6.398;2022-09-09T06:12:52;9.30;;;6.65;;
58950;SDS011;44730;53.158;6.398;2022-09-09T06:15:18;10.73;;;6.97;;
58950;SDS011;44730;53.158;6.398;2022-09-09T06:17:43;9.00;;;6.65;;
58950;SDS011;44730;53.158;6.398;2022-09-09T06:20:10;8.63;;;6.57;;
58950;SDS011;44730;53.158;6.398;2022-09-09T06:22:39;9.50;;;6.18;;
58950;SDS011;44730;53.158;6.398;2022-09-09T06:25:08;10.18;;;6.60;;
58950;SDS011;44730;53.158;6.398;2022-09-09T06:27:34;9.65;;;7.05;;
58950;SDS011;44730;53.158;6.398;2022-09-09T06:30:00;9.68;;;5.75;;
58950;SDS011;44730;53.158;6.398;2022-09-09T06:32:27;9.45;;;6.43;;
58950;SDS011;44730;53.158;6.398;2022-09-09T06:34:53;8.18;;;6.22;;
58950;SDS011;44730;53.158;6.398;2022-09-09T06:37:19;10.85;;;5.82;;
58950;SDS011;44730;53.158;6.398;2022-09-09T06:39:45;8.60;;;6.22;;
58950;SDS011;44730;53.158;6.398;2022-09-09T06:42:11;9.23;;;5.97;;
58950;SDS011;44730;53.158;6.398;2022-09-09T06:44:37;7.30;;;5.55;;
58950;SDS011;44730;53.158;6.398;2022-09-09T06:47:03;8.82;;;5.55;;
58950;SDS011;44730;53.158;6.398;2022-09-09T06:49:29;9.65;;;5.90;;
58950;SDS011;44730;53.158;6.398;2022-09-09T06:51:54;8.48;;;5.40;;
58950;SDS011;44730;53.158;6.398;2022-09-09T06:54:20;7.75;;;5.57;;
58950;SDS011;44730;53.158;6.398;2022-09-09T06:56:47;7.85;;;5.32;;
58950;SDS011;44730;53.158;6.398;2022-09-09T06:59:18;9.90;;;6.47;;
58950;SDS011;44730;53.158;6.398;2022-09-09T07:01:43;7.75;;;5.68;;
58950;SDS011;44730;53.158;6.398;2022-09-09T07:04:09;6.55;;;5.00;;
58950;SDS011;44730;53.158;6.398;2022-09-09T07:06:39;9.77;;;5.80;;
58950;SDS011;44730;53.158;6.398;2022-09-09T07:09:09;9.30;;;5.47;;
58950;SDS011;44730;53.158;6.398;2022-09-09T07:11:40;7.70;;;5.40;;
58950;SDS011;44730;53.158;6.398;2022-09-09T07:14:08;7.43;;;5.47;;
58950;SDS011;44730;53.158;6.398;2022-09-09T07:16:38;8.82;;;4.72;;
58950;SDS011;44730;53.158;6.398;2022-09-09T07:19:05;8.13;;;5.63;;
58950;SDS011;44730;53.158;6.398;2022-09-09T07:21:31;6.90;;;5.30;;
58950;SDS011;44730;53.158;6.398;2022-09-09T07:23:58;7.38;;;5.82;;
58950;SDS011;44730;53.158;6.398;2022-09-09T07:26:25;8.82;;;6.00;;
58950;SDS011;44730;53.158;6.398;2022-09-09T07:28:53;8.13;;;5.68;;
58950;SDS011;44730;53.158;6.398;2022-09-09T07:31:22;9.15;;;5.57;;
58950;SDS011;44730;53.158;6.398;2022-09-09T07:33:49;6.55;;;5.10;;
58950;SDS011;44730;53.158;6.398;2022-09-09T07:36:24;6.60;;;5.22;;
58950;SDS011;44730;53.158;6.398;2022-09-09T07:38:55;7.45;;;5.47;;
58950;SDS011;44730;53.158;6.398;2022-09-09T07:43:55;7.18;;;4.45;;
58950;SDS011;44730;53.158;6.398;2022-09-09T07:46:22;6.03;;;4.60;;
58950;SDS011;44730;53.158;6.398;2022-09-09T07:48:51;7.13;;;4.85;;
58950;SDS011;44730;53.158;6.398;2022-09-09T07:51:21;6.15;;;4.72;;
58950;SDS011;44730;53.158;6.398;2022-09-09T07:53:52;5.72;;;4.55;;
58950;SDS011;44730;53.158;6.398;2022-09-09T07:56:19;5.15;;;4.35;;
58950;SDS011;44730;53.158;6.398;2022-09-09T07:58:48;7.43;;;4.28;;
58950;SDS011;44730;53.158;6.398;2022-09-09T08:01:19;9.20;;;4.60;;
58950;SDS011;44730;53.158;6.398;2022-09-09T08:03:51;6.38;;;4.38;;
58950;SDS011;44730;53.158;6.398;2022-09-09T08:06:24;5.85;;;4.22;;
58950;SDS011;44730;53.158;6.398;2022-09-09T08:08:52;5.20;;;4.30;;
58950;SDS011;44730;53.158;6.398;2022-09-09T08:11:19;6.80;;;4.20;;
58950;SDS011;44730;53.158;6.398;2022-09-09T08:13:49;8.02;;;4.43;;
58950;SDS011;44730;53.158;6.398;2022-09-09T08:16:17;5.78;;;3.78;;
58950;SDS011;44730;53.158;6.398;2022-09-09T08:18:48;5.75;;;3.88;;
58950;SDS011;44730;53.158;6.398;2022-09-09T08:21:16;4.88;;;3.72;;
58950;SDS011;44730;53.158;6.398;2022-09-09T08:23:47;6.47;;;3.75;;
58950;SDS011;44730;53.158;6.398;2022-09-09T08:26:17;6.55;;;4.07;;
58950;SDS011;44730;53.158;6.398;2022-09-09T08:28:51;6.15;;;4.22;;
58950;SDS011;44730;53.158;6.398;2022-09-09T08:31:29;7.82;;;4.15;;
58950;SDS011;44730;53.158;6.398;2022-09-09T08:34:02;7.03;;;4.10;;
58950;SDS011;44730;53.158;6.398;2022-09-09T08:36:30;7.38;;;4.15;;
58950;SDS011;44730;53.158;6.398;2022-09-09T08:39:01;6.43;;;3.95;;
58950;SDS011;44730;53.158;6.398;2022-09-09T08:49:56;4.07;;;3.67;;
58950;SDS011;44730;53.158;6.398;2022-09-09T08:52:31;6.05;;;3.92;;
58950;SDS011;44730;53.158;6.398;2022-09-09T08:55:22;4.68;;;3.35;;
58950;SDS011;44730;53.158;6.398;2022-09-09T08:57:58;6.07;;;3.65;;
58950;SDS011;44730;53.158;6.398;2022-09-09T09:00:42;4.28;;;3.47;;
58950;SDS011;44730;53.158;6.398;2022-09-09T09:03:15;5.00;;;3.80;;
58950;SDS011;44730;53.158;6.398;2022-09-09T09:06:08;9.18;;;3.80;;
58950;SDS011;44730;53.158;6.398;2022-09-09T09:11:54;6.90;;;3.90;;
58950;SDS011;44730;53.158;6.398;2022-09-09T09:14:29;5.72;;;3.70;;
58950;SDS011;44730;53.158;6.398;2022-09-09T09:19:40;5.43;;;3.42;;
58950;SDS011;44730;53.158;6.398;2022-09-09T09:22:18;4.50;;;3.35;;
58950;SDS011;44730;53.158;6.398;2022-09-09T09:28:24;6.00;;;3.47;;
58950;SDS011;44730;53.158;6.398;2022-09-09T09:30:34;6.45;;;3.35;;
58950;SDS011;44730;53.158;6.398;2022-09-09T09:35:44;3.83;;;2.63;;
58950;SDS011;44730;53.158;6.398;2022-09-09T09:38:17;5.65;;;3.17;;
58950;SDS011;44730;53.158;6.398;2022-09-09T09:41:03;6.63;;;3.53;;
58950;SDS011;44730;53.158;6.398;2022-09-09T09:43:36;3.75;;;2.65;;
58950;SDS011;44730;53.158;6.398;2022-09-09T09:46:05;5.97;;;3.00;;
58950;SDS011;44730;53.158;6.398;2022-09-09T09:48:44;4.88;;;2.60;;
58950;SDS011;44730;53.158;6.398;2022-09-09T09:51:14;7.20;;;3.10;;
58950;SDS011;44730;53.158;6.398;2022-09-09T09:53:42;6.00;;;3.03;;
58950;SDS011;44730;53.158;6.398;2022-09-09T09:56:09;4.90;;;2.55;;
58950;SDS011;44730;53.158;6.398;2022-09-09T10:01:19;4.82;;;2.67;;
58950;SDS011;44730;53.158;6.398;2022-09-09T10:03:53;4.78;;;3.00;;
58950;SDS011;44730;53.158;6.398;2022-09-09T10:06:34;5.50;;;2.90;;
58950;SDS011;44730;53.158;6.398;2022-09-09T10:09:22;4.28;;;2.83;;
58950;SDS011;44730;53.158;6.398;2022-09-09T10:12:09;5.57;;;2.83;;
58950;SDS011;44730;53.158;6.398;2022-09-09T10:20:24;3.95;;;2.47;;
58950;SDS011;44730;53.158;6.398;2022-09-09T10:28:32;4.72;;;2.92;;
58950;SDS011;44730;53.158;6.398;2022-09-09T10:31:23;9.13;;;3.25;;
58950;SDS011;44730;53.158;6.398;2022-09-09T10:34:04;6.65;;;3.30;;
58950;SDS011;44730;53.158;6.398;2022-09-09T10:36:39;4.25;;;2.30;;
58950;SDS011;44730;53.158;6.398;2022-09-09T10:39:17;5.60;;;2.45;;
58950;SDS011;44730;53.158;6.398;2022-09-09T10:47:36;5.88;;;2.08;;
58950;SDS011;44730;53.158;6.398;2022-09-09T10:56:12;4.93;;;2.17;;
58950;SDS011;44730;53.158;6.398;2022-09-09T10:58:36;9.38;;;2.33;;
58950;SDS011;44730;53.158;6.398;2022-09-09T11:01:28;4.82;;;2.25;;
58950;SDS011;44730;53.158;6.398;2022-09-09T11:04:04;4.05;;;2.58;;
58950;SDS011;44730;53.158;6.398;2022-09-09T11:06:39;4.72;;;2.33;;
58950;SDS011;44730;53.158;6.398;2022-09-09T11:09:13;4.82;;;2.10;;
58950;SDS011;44730;53.158;6.398;2022-09-09T11:11:45;4.22;;;2.00;;
58950;SDS011;44730;53.158;6.398;2022-09-09T11:17:00;4.30;;;2.17;;
58950;SDS011;44730;53.158;6.398;2022-09-09T11:19:37;3.78;;;2.03;;
58950;SDS011;44730;53.158;6.398;2022-09-09T11:24:54;2.60;;;1.80;;
58950;SDS011;44730;53.158;6.398;2022-09-09T11:30:51;4.07;;;1.70;;
58950;SDS011;44730;53.158;6.398;2022-09-09T11:39:25;5.72;;;1.85;;
58950;SDS011;44730;53.158;6.398;2022-09-09T11:42:12;5.50;;;2.35;;
58950;SDS011;44730;53.158;6.398;2022-09-09T11:44:45;6.80;;;2.30;;
58950;SDS011;44730;53.158;6.398;2022-09-09T11:49:46;6.00;;;2.03;;
58950;SDS011;44730;53.158;6.398;2022-09-09T11:55:08;4.22;;;1.88;;
58950;SDS011;44730;53.158;6.398;2022-09-09T11:58:04;3.40;;;1.90;;
58950;SDS011;44730;53.158;6.398;2022-09-09T12:00:40;2.35;;;1.80;;
58950;SDS011;44730;53.158;6.398;2022-09-09T12:06:10;4.15;;;1.70;;
58950;SDS011;44730;53.158;6.398;2022-09-09T12:08:36;5.20;;;2.38;;
58950;SDS011;44730;53.158;6.398;2022-09-09T12:11:07;3.50;;;2.13;;
58950;SDS011;44730;53.158;6.398;2022-09-09T12:13:34;5.05;;;2.38;;
58950;SDS011;44730;53.158;6.398;2022-09-09T12:16:01;4.45;;;2.10;;
58950;SDS011;44730;53.158;6.398;2022-09-09T12:18:38;4.78;;;2.17;;
58950;SDS011;44730;53.158;6.398;2022-09-09T12:24:08;3.58;;;1.90;;
58950;SDS011;44730;53.158;6.398;2022-09-09T12:29:08;5.97;;;2.10;;
58950;SDS011;44730;53.158;6.398;2022-09-09T12:32:06;3.17;;;1.77;;
58950;SDS011;44730;53.158;6.398;2022-09-09T12:37:04;4.20;;;1.98;;
58950;SDS011;44730;53.158;6.398;2022-09-09T12:39:44;2.53;;;2.00;;
58950;SDS011;44730;53.158;6.398;2022-09-09T12:42:21;8.18;;;2.05;;
58950;SDS011;44730;53.158;6.398;2022-09-09T12:45:02;2.75;;;1.88;;
58950;SDS011;44730;53.158;6.398;2022-09-09T12:47:43;3.03;;;1.70;;
58950;SDS011;44730;53.158;6.398;2022-09-09T12:50:25;3.30;;;2.15;;
58950;SDS011;44730;53.158;6.398;2022-09-09T12:53:38;6.97;;;2.05;;
58950;SDS011;44730;53.158;6.398;2022-09-09T12:56:01;3.88;;;1.70;;
58950;SDS011;44730;53.158;6.398;2022-09-09T12:58:33;5.50;;;1.92;;
58950;SDS011;44730;53.158;6.398;2022-09-09T13:01:01;4.05;;;1.85;;
58950;SDS011;44730;53.158;6.398;2022-09-09T13:03:33;3.17;;;1.90;;
58950;SDS011;44730;53.158;6.398;2022-09-09T13:06:12;3.30;;;1.90;;
58950;SDS011;44730;53.158;6.398;2022-09-09T13:08:43;2.58;;;1.70;;
58950;SDS011;44730;53.158;6.398;2022-09-09T13:11:10;6.53;;;2.03;;
58950;SDS011;44730;53.158;6.398;2022-09-09T13:13:41;4.85;;;2.00;;
58950;SDS011;44730;53.158;6.398;2022-09-09T13:18:57;5.38;;;1.73;;
58950;SDS011;44730;53.158;6.398;2022-09-09T13:21:32;4.57;;;2.05;;
58950;SDS011;44730;53.158;6.398;2022-09-09T13:24:03;4.25;;;1.73;;
58950;SDS011;44730;53.158;6.398;2022-09-09T13:26:33;3.92;;;1.80;;
58950;SDS011;44730;53.158;6.398;2022-09-09T13:29:16;6.18;;;2.00;;
58950;SDS011;44730;53.158;6.398;2022-09-09T13:31:43;4.18;;;2.00;;
58950;SDS011;44730;53.158;6.398;2022-09-09T13:34:13;3.78;;;1.90;;
58950;SDS011;44730;53.158;6.398;2022-09-09T13:37:01;5.18;;;2.10;;
58950;SDS011;44730;53.158;6.398;2022-09-09T13:39:39;4.18;;;1.80;;
58950;SDS011;44730;53.158;6.398;2022-09-09T13:42:19;2.97;;;1.90;;
58950;SDS011;44730;53.158;6.398;2022-09-09T13:44:50;4.28;;;1.90;;
58950;SDS011;44730;53.158;6.398;2022-09-09T13:47:31;4.90;;;1.90;;
58950;SDS011;44730;53.158;6.398;2022-09-09T13:50:44;3.13;;;1.87;;
58950;SDS011;44730;53.158;6.398;2022-09-09T13:52:46;4.05;;;1.88;;
58950;SDS011;44730;53.158;6.398;2022-09-09T13:55:14;2.60;;;1.65;;
58950;SDS011;44730;53.158;6.398;2022-09-09T13:57:49;3.90;;;2.15;;
58950;SDS011;44730;53.158;6.398;2022-09-09T14:00:19;2.95;;;1.70;;
58950;SDS011;44730;53.158;6.398;2022-09-09T14:02:47;2.78;;;1.52;;
58950;SDS011;44730;53.158;6.398;2022-09-09T14:05:14;3.45;;;1.67;;
58950;SDS011;44730;53.158;6.398;2022-09-09T14:07:41;3.38;;;1.65;;
58950;SDS011;44730;53.158;6.398;2022-09-09T14:10:08;2.40;;;1.73;;
58950;SDS011;44730;53.158;6.398;2022-09-09T14:12:35;4.25;;;2.05;;
58950;SDS011;44730;53.158;6.398;2022-09-09T14:15:04;2.67;;;1.70;;
58950;SDS011;44730;53.158;6.398;2022-09-09T14:17:32;3.47;;;1.85;;
58950;SDS011;44730;53.158;6.398;2022-09-09T14:20:01;2.58;;;1.88;;
58950;SDS011;44730;53.158;6.398;2022-09-09T14:22:30;3.13;;;1.40;;
58950;SDS011;44730;53.158;6.398;2022-09-09T14:24:56;1.75;;;1.60;;
58950;SDS011;44730;53.158;6.398;2022-09-09T14:27:22;1.80;;;1.60;;
58950;SDS011;44730;53.158;6.398;2022-09-09T14:29:48;1.75;;;1.52;;
58950;SDS011;44730;53.158;6.398;2022-09-09T14:32:15;1.67;;;1.58;;
58950;SDS011;44730;53.158;6.398;2022-09-09T14:34:40;2.65;;;1.88;;
58950;SDS011;44730;53.158;6.398;2022-09-09T14:37:06;8.00;;;2.13;;
58950;SDS011;44730;53.158;6.398;2022-09-09T14:39:32;3.58;;;1.73;;
58950;SDS011;44730;53.158;6.398;2022-09-09T14:41:58;5.93;;;2.40;;
58950;SDS011;44730;53.158;6.398;2022-09-09T14:44:24;2.95;;;2.00;;
58950;SDS011;44730;53.158;6.398;2022-09-09T14:46:50;2.85;;;1.65;;
58950;SDS011;44730;53.158;6.398;2022-09-09T14:49:15;3.63;;;2.00;;
58950;SDS011;44730;53.158;6.398;2022-09-09T14:51:41;3.30;;;1.70;;
58950;SDS011;44730;53.158;6.398;2022-09-09T14:54:07;2.67;;;1.50;;
58950;SDS011;44730;53.158;6.398;2022-09-09T14:56:38;2.28;;;1.42;;
58950;SDS011;44730;53.158;6.398;2022-09-09T14:59:03;2.65;;;1.35;;
58950;SDS011;44730;53.158;6.398;2022-09-09T15:01:33;3.60;;;1.63;;
58950;SDS011;44730;53.158;6.398;2022-09-09T15:04:00;2.10;;;1.48;;
58950;SDS011;44730;53.158;6.398;2022-09-09T15:06:29;3.40;;;1.50;;
58950;SDS011;44730;53.158;6.398;2022-09-09T15:08:58;2.53;;;1.30;;
58950;SDS011;44730;53.158;6.398;2022-09-09T15:11:25;1.52;;;1.20;;
58950;SDS011;44730;53.158;6.398;2022-09-09T15:13:53;1.45;;;1.13;;
58950;SDS011;44730;53.158;6.398;2022-09-09T15:16:21;15.85;;;3.28;;
58950;SDS011;44730;53.158;6.398;2022-09-09T15:18:50;11.65;;;3.40;;
58950;SDS011;44730;53.158;6.398;2022-09-09T15:21:20;2.58;;;1.60;;
58950;SDS011;44730;53.158;6.398;2022-09-09T15:23:47;2.15;;;1.73;;
58950;SDS011;44730;53.158;6.398;2022-09-09T15:26:15;1.63;;;1.20;;
58950;SDS011;44730;53.158;6.398;2022-09-09T15:28:42;3.22;;;1.65;;
58950;SDS011;44730;53.158;6.398;2022-09-09T15:31:19;1.88;;;1.30;;
58950;SDS011;44730;53.158;6.398;2022-09-09T15:33:56;2.15;;;1.58;;
58950;SDS011;44730;53.158;6.398;2022-09-09T15:36:27;1.50;;;1.40;;
58950;SDS011;44730;53.158;6.398;2022-09-09T15:38:55;2.30;;;1.42;;
58950;SDS011;44730;53.158;6.398;2022-09-09T15:41:22;3.63;;;1.70;;
58950;SDS011;44730;53.158;6.398;2022-09-09T15:43:49;3.05;;;1.40;;
58950;SDS011;44730;53.158;6.398;2022-09-09T15:48:49;3.88;;;1.40;;
58950;SDS011;44730;53.158;6.398;2022-09-09T15:51:16;1.63;;;1.38;;
58950;SDS011;44730;53.158;6.398;2022-09-09T15:53:42;5.05;;;1.98;;
58950;SDS011;44730;53.158;6.398;2022-09-09T15:56:08;3.42;;;1.58;;
58950;SDS011;44730;53.158;6.398;2022-09-09T15:58:35;2.55;;;1.42;;
58950;SDS011;44730;53.158;6.398;2022-09-09T16:01:07;3.22;;;1.70;;
58950;SDS011;44730;53.158;6.398;2022-09-09T16:03:35;2.80;;;1.90;;
58950;SDS011;44730;53.158;6.398;2022-09-09T16:06:02;5.50;;;2.00;;
58950;SDS011;44730;53.158;6.398;2022-09-09T16:08:36;3.85;;;2.35;;
58950;SDS011;44730;53.158;6.398;2022-09-09T16:13:35;3.15;;;2.30;;
58950;SDS011;44730;53.158;6.398;2022-09-09T16:16:03;4.22;;;2.35;;
58950;SDS011;44730;53.158;6.398;2022-09-09T16:18:36;4.55;;;2.15;;
58950;SDS011;44730;53.158;6.398;2022-09-09T16:21:07;3.72;;;2.00;;
58950;SDS011;44730;53.158;6.398;2022-09-09T16:23:36;3.22;;;2.17;;
58950;SDS011;44730;53.158;6.398;2022-09-09T16:26:01;7.78;;;1.80;;
58950;SDS011;44730;53.158;6.398;2022-09-09T16:28:27;5.57;;;2.08;;
58950;SDS011;44730;53.158;6.398;2022-09-09T16:30:55;3.03;;;1.77;;
58950;SDS011;44730;53.158;6.398;2022-09-09T16:33:23;2.78;;;2.00;;
58950;SDS011;44730;53.158;6.398;2022-09-09T16:35:49;2.38;;;1.67;;
58950;SDS011;44730;53.158;6.398;2022-09-09T16:38:14;3.58;;;2.00;;
58950;SDS011;44730;53.158;6.398;2022-09-09T16:40:42;2.90;;;1.83;;
58950;SDS011;44730;53.158;6.398;2022-09-09T16:43:08;2.33;;;1.70;;
58950;SDS011;44730;53.158;6.398;2022-09-09T16:45:44;3.85;;;1.70;;
58950;SDS011;44730;53.158;6.398;2022-09-09T16:48:10;2.42;;;1.67;;
58950;SDS011;44730;53.158;6.398;2022-09-09T16:50:37;2.50;;;1.63;;
58950;SDS011;44730;53.158;6.398;2022-09-09T16:53:05;1.85;;;1.50;;
58950;SDS011;44730;53.158;6.398;2022-09-09T16:55:37;2.88;;;1.95;;
58950;SDS011;44730;53.158;6.398;2022-09-09T16:58:05;3.53;;;2.03;;
58950;SDS011;44730;53.158;6.398;2022-09-09T17:00:30;2.10;;;1.63;;
58950;SDS011;44730;53.158;6.398;2022-09-09T17:02:56;2.15;;;1.40;;
58950;SDS011;44730;53.158;6.398;2022-09-09T17:05:22;3.05;;;2.15;;
58950;SDS011;44730;53.158;6.398;2022-09-09T17:07:48;2.00;;;1.80;;
58950;SDS011;44730;53.158;6.398;2022-09-09T17:10:14;2.47;;;2.00;;